Sunray, Texas
Current Conditions -  °F | °C
As of 4:51 PM on Thursday 27 Nov 2014 (Local Time) from KBGD Reporting Station
Clear Clear  
Wind Chill: 60°   Ceiling: Unl
Heat Index: 60°   Visibility: 10mi
Dew Point: 29°   Wind: 14mph
Humidity: 31%   Direction: 190°S
Pressure: 30.2"   Gusts: 24mph
Location:  36.02°N, 101.82°W
Report Text: KBGD 272251Z AUTO 19012G21KT 10SM CLR 16/M02 A3020 RMK AO2 SLP226 T01561017
Loading
Personal Weather Stations






























Interactive Weather Map New forecast layout! Learn more

10-Day Weather Forecast

Advertisements
Track Severe Weather on mobile